KSUN/SUN METAR and TAF weather

Enter ICAO airport designator
Station Type Date Time Source
KSUN METAR 2021/07/26 13:47 UTC NOAA

KSUN 261347Z 32010KT 7SM FU SKC 18/01 A3017


Station Type Date Time Source
KSUN Decoded METAR 2021/07/26 13:47 UTC NOAA

Hailey, Friedman Memorial Airport, ID, United States (KSUN) 43-30N 114-18W
Jul 26, 2021 - 09:47 AM EDT / 2021.07.26 1347 UTC
Wind: from the NW (320 degrees) at 12 MPH (10 KT):0
Visibility: 7 mile(s):0
Sky conditions: clear
Weather: smoke
Temperature: 64 F (18 C)
Dew Point: 33 F (1 C)
Relative Humidity: 31%
Pressure (altimeter): 30.17 in. Hg (1021 hPa)
ob: KSUN 261347Z 32010KT 7SM FU SKC 18/01 A3017
cycle: 14

Station Type Date Time Source
KSUN TAF 2021/07/26 12:22 UTC NOAA

TAF KSUN 261120Z 2612/2718 31010KT P6SM FEW150
FM261800 13008KT P6SM FEW080 SCT120
FM262100 17008KT 6SM FU SCT120
FM270300 31009KT P6SM SCT120
AMD LTD TO CLD VIS AND WIND TIL 261300

Example: see airport list